Asteria — WDE5489 — position and weather

sailwx.info

Track history (hours):
 
Tides and Currents Weather Stations Pressure Air Temp Water Temp Dewpoint Dewpoint Depression Visibility Wind Speed Wind Dir Waves Ship Positions

Asteria

Owner: Boston HarborCruises, Boston, MA. More information available from US FCC via Universal Licensing System and Coast Guard Vessel Documentation Center.

Last reported at 2014-Nov-13 14:07 UTC. Time now 2014-Nov-23 09:38 UTC.
Position N 42°20' W 070°60'.
Warning: this ship's position is 9 days out of date.

Length 33 m; draft 2 m.

Type: High speed craft. MMSI: 367367470.

Date/timePositionNaut miles runAvg speedWind from/ knotsBaromVisibWave heightAir tempDewpointWater temp
2014-Nov-13 14:07N 42°20' W 070°60'5 6.9
2014-Nov-13 13:24N 42°16' W 070°56'3 3.6
2014-Nov-13 12:33N 42°18' W 070°58'3 0.2
2014-Nov-13 01:03N 42°21' W 071°00'611.5
2014-Nov-13 00:30N 42°16' W 070°55'8 0.7
2014-Nov-12 14:15N 42°21' W 071°02'7 9.0
2014-Nov-12 13:29N 42°16' W 070°56'2 2.0
2014-Nov-12 12:33N 42°17' W 070°57'2 1.7
2014-Nov-12 11:31N 42°16' W 070°56'1 1.0
2014-Nov-12 10:31N 42°15' W 070°55'8 0.9
2014-Nov-12 01:33N 42°21' W 071°03'8 8.3
2014-Nov-12 00:33N 42°15' W 070°55'7 6.9
2014-Nov-11 23:33N 42°21' W 071°01'1 0.8
2014-Nov-11 22:33N 42°20' W 071°00'2 0.2
2014-Nov-11 14:16N 42°21' W 071°02'6 7.7
2014-Nov-11 13:26N 42°17' W 070°56'2 0.1
2014-Nov-10 13:19N 42°17' W 070°58'1 1.7
2014-Nov-10 12:26N 42°17' W 070°56'  
2014-Nov-06 00:16N 42°19' W 070°59'2 0.2
2014-Nov-05 11:20N 42°20' W 071°00'6 0.6
2014-Nov-05 00:25N 42°15' W 070°55'  
Track history (hours):
 
Tides and Currents Weather Stations Pressure Air Temp Water Temp Dewpoint Dewpoint Depression Visibility Wind Speed Wind Dir Waves Ship Positions

Asteria

Owner: Boston HarborCruises, Boston, MA. More information available from US FCC via Universal Licensing System and Coast Guard Vessel Documentation Center.

Last reported at 2014-Nov-13 14:07 UTC. Time now 2014-Nov-23 09:38 UTC.
Position N 42°20' W 070°60'.
Warning: this ship's position is 9 days out of date.

Length 33 m; draft 2 m.

Type: High speed craft. MMSI: 367367470.

Date/timePositionNaut miles runAvg speedWind from/ knotsBaromVisibWave heightAir tempDewpointWater temp
2014-Nov-13 14:07N 42°20' W 070°60'5 6.9
2014-Nov-13 13:24N 42°16' W 070°56'3 3.6
2014-Nov-13 12:33N 42°18' W 070°58'3 0.2
2014-Nov-13 01:03N 42°21' W 071°00'611.5
2014-Nov-13 00:30N 42°16' W 070°55'8 0.7
2014-Nov-12 14:15N 42°21' W 071°02'7 9.0
2014-Nov-12 13:29N 42°16' W 070°56'2 2.0
2014-Nov-12 12:33N 42°17' W 070°57'2 1.7
2014-Nov-12 11:31N 42°16' W 070°56'1 1.0
2014-Nov-12 10:31N 42°15' W 070°55'8 0.9
2014-Nov-12 01:33N 42°21' W 071°03'8 8.3
2014-Nov-12 00:33N 42°15' W 070°55'7 6.9
2014-Nov-11 23:33N 42°21' W 071°01'1 0.8
2014-Nov-11 22:33N 42°20' W 071°00'2 0.2
2014-Nov-11 14:16N 42°21' W 071°02'6 7.7
2014-Nov-11 13:26N 42°17' W 070°56'2 0.1
2014-Nov-10 13:19N 42°17' W 070°58'1 1.7
2014-Nov-10 12:26N 42°17' W 070°56'  
2014-Nov-06 00:16N 42°19' W 070°59'2 0.2
2014-Nov-05 11:20N 42°20' W 071°00'6 0.6
2014-Nov-05 00:25N 42°15' W 070°55'  

Dump ship's entire track history